Aviation Digital Data Service (ADDS)

Output produced by METARs form (2123 UTC 03 September 2015)
found at http://aviationweather.gov/adds/metars/
 
KRUT 031726Z 0318/0418 35006KT P6SM VCSH SCT035 
     TEMPO 0319/0321 3SM SHRA BR OVC028 
     FM032300 01005KT P6SM SCT060 
     FM040200 13008KT P6SM SCT150 AMD LTD TO CLD VIS AND WIND